createdAt,value
2023-07-01T00:02:05.498Z,97143.21
2023-07-01T00:04:33.608Z,97143.44
2023-07-01T00:07:01.817Z,97137.17
2023-07-01T00:09:29.896Z,97133.55
2023-07-01T00:11:57.939Z,97130.66
2023-07-01T00:14:26.069Z,97128.98
2023-07-01T00:16:56.193Z,97133.20
2023-07-01T00:19:24.219Z,97129.99
2023-07-01T00:21:53.545Z,97131.86
2023-07-01T00:24:21.647Z,97134.38
2023-07-01T00:26:49.576Z,97131.46
2023-07-01T00:29:17.482Z,97126.92
2023-07-01T00:31:45.494Z,97126.80
2023-07-01T00:34:13.822Z,97128.39
2023-07-01T00:36:41.861Z,97125.94
2023-07-01T00:39:09.888Z,97126.14
2023-07-01T00:41:37.994Z,97123.54
2023-07-01T00:44:06.066Z,97120.23
2023-07-01T00:46:35.177Z,97118.87
2023-07-01T00:49:03.219Z,97121.05
2023-07-01T00:51:31.678Z,97121.06
2023-07-01T00:53:59.595Z,97118.31
2023-07-01T00:56:27.602Z,97118.75
2023-07-01T00:58:55.838Z,97116.13
2023-07-01T01:01:31.106Z,97114.61
2023-07-01T01:04:16.239Z,97114.68
2023-07-01T01:06:59.287Z,97112.14
2023-07-01T01:09:34.662Z,97111.93
2023-07-01T01:12:06.677Z,97111.59
2023-07-01T01:14:36.396Z,97113.24
2023-07-01T01:17:06.604Z,97109.45
2023-07-01T01:19:37.581Z,97106.77
2023-07-01T01:22:40.160Z,97110.05
2023-07-01T01:25:18.635Z,97105.14
2023-07-01T01:27:46.609Z,97103.27
2023-07-01T01:30:15.467Z,97098.81
2023-07-01T01:32:43.436Z,97100.24
2023-07-01T01:35:11.469Z,97101.27
2023-07-01T01:37:41.328Z,97099.98
2023-07-01T01:40:20.658Z,97097.41
2023-07-01T01:42:48.866Z,97095.11
2023-07-01T01:45:20.766Z,97095.09
2023-07-01T01:47:50.796Z,97094.69
2023-07-01T01:50:21.257Z,97092.67
2023-07-01T01:52:52.135Z,97087.73
2023-07-01T01:55:21.909Z,97084.02
2023-07-01T01:57:50.688Z,97083.17
2023-07-01T02:00:19.214Z,97083.20
2023-07-01T02:02:47.463Z,97078.59
2023-07-01T02:05:15.606Z,97077.65
2023-07-01T02:07:43.791Z,97077.09
2023-07-01T02:10:13.327Z,97071.25
2023-07-01T02:12:41.371Z,97071.52
2023-07-01T02:15:09.780Z,97073.16
2023-07-01T02:17:37.919Z,97071.45
2023-07-01T02:20:06.747Z,97068.90
2023-07-01T02:22:34.695Z,97080.52
2023-07-01T02:25:03.108Z,97081.75
2023-07-01T02:27:32.202Z,97080.54
2023-07-01T02:30:01.031Z,97083.02
2023-07-01T02:32:29.291Z,97082.65
2023-07-01T02:34:57.332Z,97084.45
2023-07-01T02:37:25.461Z,97083.18
2023-07-01T02:39:53.427Z,97085.75
2023-07-01T02:42:21.775Z,97092.50
2023-07-01T02:44:50.708Z,97098.00
2023-07-01T02:47:19.740Z,97092.66
2023-07-01T02:49:49.517Z,97090.43
2023-07-01T02:52:18.608Z,97090.75
2023-07-01T02:54:46.603Z,97093.31
2023-07-01T02:57:14.694Z,97091.40
2023-07-01T02:59:44.197Z,97092.30
2023-07-01T03:02:12.258Z,97093.48
2023-07-01T03:04:40.513Z,97096.15
2023-07-01T03:07:08.556Z,97089.67
2023-07-01T03:09:36.584Z,97090.42
2023-07-01T03:12:05.113Z,97088.55
2023-07-01T03:14:33.183Z,97083.70
2023-07-01T03:17:01.403Z,97083.20
2023-07-01T03:19:29.590Z,97077.93
2023-07-01T03:21:57.647Z,97076.88
2023-07-01T03:24:35.218Z,97072.62
2023-07-01T03:27:07.508Z,97072.83
2023-07-01T03:29:35.616Z,97068.23
2023-07-01T03:32:06.585Z,97070.90
2023-07-01T03:34:34.665Z,97071.90
2023-07-01T03:37:02.652Z,97070.04
2023-07-01T03:39:30.597Z,97068.06
2023-07-01T03:41:58.516Z,97064.95
2023-07-01T03:44:26.732Z,97060.62
2023-07-01T03:46:54.689Z,97057.23
2023-07-01T03:49:22.850Z,97055.42
2023-07-01T03:51:52.945Z,97051.52
2023-07-01T03:54:21.382Z,97053.48
2023-07-01T03:56:49.367Z,97051.93
2023-07-01T03:59:17.388Z,97050.98
2023-07-01T04:01:45.451Z,97050.12
2023-07-01T04:04:13.709Z,97052.42
2023-07-01T04:06:41.721Z,97056.25
2023-07-01T04:09:14.086Z,97059.10
2023-07-01T04:11:42.538Z,97059.27
2023-07-01T04:14:10.634Z,97058.97
2023-07-01T04:16:38.779Z,97059.75
2023-07-01T04:19:09.437Z,97060.61
2023-07-01T04:21:37.833Z,97065.20
2023-07-01T04:24:08.669Z,97064.27
2023-07-01T04:26:36.931Z,97062.88
2023-07-01T04:29:05.784Z,97058.70
2023-07-01T04:31:33.913Z,97056.40
2023-07-01T04:34:02.120Z,97057.44
2023-07-01T04:36:30.346Z,97054.10
2023-07-01T04:38:58.314Z,97049.09
2023-07-01T04:41:26.468Z,97042.36
2023-07-01T04:43:54.561Z,97043.63
2023-07-01T04:46:22.511Z,97045.86
2023-07-01T04:48:50.506Z,97048.15
2023-07-01T04:51:18.481Z,97045.05
2023-07-01T04:53:46.449Z,97042.25
2023-07-01T04:56:14.536Z,97042.98
2023-07-01T04:58:42.692Z,97039.07
2023-07-01T05:01:10.721Z,97040.01
2023-07-01T05:03:39.078Z,97037.11
2023-07-01T05:06:07.364Z,97032.55
2023-07-01T05:08:35.379Z,97033.04
2023-07-01T05:11:04.627Z,97032.70
2023-07-01T05:13:32.598Z,97038.55
2023-07-01T05:16:00.586Z,97037.67
2023-07-01T05:18:28.743Z,97034.55
2023-07-01T05:20:56.861Z,97034.66
2023-07-01T05:23:25.195Z,97034.05
2023-07-01T05:25:53.618Z,97036.40
2023-07-01T05:28:21.724Z,97034.70
2023-07-01T05:30:50.746Z,97033.32
2023-07-01T05:33:19.169Z,97031.52
2023-07-01T05:35:47.275Z,97032.72
2023-07-01T05:38:15.497Z,97029.60
2023-07-01T05:40:43.445Z,97028.36
2023-07-01T05:43:11.568Z,97027.59
2023-07-01T05:45:39.685Z,97024.24
2023-07-01T05:48:07.695Z,97028.14
2023-07-01T05:50:35.683Z,97032.52
2023-07-01T05:53:03.745Z,97034.63
2023-07-01T05:55:31.967Z,97030.02
2023-07-01T05:58:00.196Z,97027.85
2023-07-01T06:00:28.741Z,97025.54
2023-07-01T06:02:57.186Z,97025.33
2023-07-01T06:05:25.517Z,97028.16
2023-07-01T06:07:53.496Z,97024.67
2023-07-01T06:10:21.676Z,97023.65
2023-07-01T06:12:49.680Z,97023.36
2023-07-01T06:15:17.662Z,97021.33
2023-07-01T06:17:45.694Z,97018.66
2023-07-01T06:20:13.885Z,97016.70
2023-07-01T06:22:41.969Z,97012.25
2023-07-01T06:25:11.885Z,97009.16
2023-07-01T06:27:40.196Z,97009.63
2023-07-01T06:30:09.060Z,97010.68
2023-07-01T06:32:37.740Z,97013.16
2023-07-01T06:35:06.990Z,97011.41
2023-07-01T06:37:35.234Z,97010.77
2023-07-01T06:40:03.685Z,97012.46
2023-07-01T06:42:31.750Z,97009.73
2023-07-01T06:44:59.928Z,97013.45
2023-07-01T06:47:28.362Z,97008.98
2023-07-01T06:49:56.542Z,97009.66
2023-07-01T06:52:24.704Z,97009.28
2023-07-01T06:54:52.914Z,97010.82
2023-07-01T06:57:21.195Z,97006.45
2023-07-01T06:59:49.171Z,97001.09
2023-07-01T07:02:17.755Z,97000.28
2023-07-01T07:04:46.338Z,96998.90
2023-07-01T07:07:14.601Z,96995.14
2023-07-01T07:09:42.615Z,96993.56
2023-07-01T07:12:10.869Z,96989.95
2023-07-01T07:14:40.356Z,96992.14
2023-07-01T07:17:08.446Z,96987.17
2023-07-01T07:19:38.264Z,96986.68
2023-07-01T07:22:07.522Z,96986.44
2023-07-01T07:24:35.839Z,96984.32
2023-07-01T07:27:04.465Z,96981.20
2023-07-01T07:29:32.745Z,96981.06
2023-07-01T07:32:01.339Z,96976.98
2023-07-01T07:34:30.089Z,96974.19
2023-07-01T07:36:58.940Z,96978.67
2023-07-01T07:39:27.153Z,96976.98
2023-07-01T07:41:55.517Z,96973.76
2023-07-01T07:44:24.276Z,96974.66
2023-07-01T07:46:52.335Z,96974.52
2023-07-01T07:49:20.528Z,96973.81
2023-07-01T07:51:48.528Z,96973.64
2023-07-01T07:54:16.775Z,96971.90
2023-07-01T07:56:44.864Z,96968.78
2023-07-01T07:59:13.239Z,96968.98
2023-07-01T08:01:42.078Z,96963.84
2023-07-01T08:04:10.407Z,96960.53
2023-07-01T08:06:38.894Z,96954.21
2023-07-01T08:09:07.172Z,96952.21
2023-07-01T08:11:35.458Z,96954.17
2023-07-01T08:14:03.931Z,96953.63
2023-07-01T08:16:33.529Z,96952.45
2023-07-01T08:19:05.337Z,96948.56
2023-07-01T08:21:37.182Z,96946.61
2023-07-01T08:24:08.824Z,96941.52
2023-07-01T08:26:37.123Z,96940.70
2023-07-01T08:29:08.716Z,96942.06
2023-07-01T08:31:37.546Z,96936.91
2023-07-01T08:34:05.891Z,96934.03
2023-07-01T08:36:34.348Z,96932.03
2023-07-01T08:39:03.830Z,96927.85
2023-07-01T08:41:38.011Z,96925.23
2023-07-01T08:44:07.485Z,96923.98
2023-07-01T08:46:39.059Z,96920.23
2023-07-01T08:49:08.263Z,96917.08
2023-07-01T08:51:41.950Z,96917.27
2023-07-01T08:54:10.777Z,96913.81
2023-07-01T08:56:39.160Z,96915.45
2023-07-01T08:59:08.054Z,96917.08
2023-07-01T09:01:39.169Z,96915.25
2023-07-01T09:04:07.848Z,96919.55
2023-07-01T09:06:36.588Z,96917.95
2023-07-01T09:09:05.336Z,96920.81
2023-07-01T09:11:33.510Z,96913.08
2023-07-01T09:14:01.589Z,96911.23
2023-07-01T09:16:38.336Z,96906.14
2023-07-01T09:19:18.538Z,96908.53
2023-07-01T09:21:47.047Z,96907.66
2023-07-01T09:24:15.256Z,96903.05
2023-07-01T09:26:43.813Z,96900.96
2023-07-01T09:29:18.669Z,96899.66
2023-07-01T09:31:53.383Z,96901.40
2023-07-01T09:34:23.855Z,96900.52
2023-07-01T09:36:53.240Z,96902.02
2023-07-01T09:39:34.604Z,96904.82
2023-07-01T09:42:07.324Z,96901.16
2023-07-01T09:44:37.086Z,96902.82
2023-07-01T09:47:06.593Z,96901.67
2023-07-01T09:49:42.646Z,96897.98
2023-07-01T09:52:11.853Z,96898.36
2023-07-01T09:54:43.540Z,96899.87
2023-07-01T09:57:12.277Z,96898.02
2023-07-01T09:59:41.443Z,96901.48
2023-07-01T10:02:11.108Z,96897.91
2023-07-01T10:04:41.142Z,96899.77
2023-07-01T10:07:10.637Z,96896.40
2023-07-01T10:09:49.144Z,96892.58
2023-07-01T10:12:21.431Z,96894.90
2023-07-01T10:14:54.876Z,96894.33
2023-07-01T10:17:44.018Z,96892.65
2023-07-01T10:20:39.086Z,96890.65
2023-07-01T10:23:08.252Z,96889.46
2023-07-01T10:25:39.326Z,96885.17
2023-07-01T10:28:09.916Z,96883.09
2023-07-01T10:30:48.438Z,96882.71
2023-07-01T10:33:29.495Z,96878.74
2023-07-01T10:36:12.204Z,96880.75
2023-07-01T10:38:42.422Z,96877.58
2023-07-01T10:41:11.871Z,96874.77
2023-07-01T10:43:40.823Z,96870.02
2023-07-01T10:46:10.305Z,96865.04
2023-07-01T10:48:41.106Z,96863.87
2023-07-01T10:51:11.267Z,96856.33
2023-07-01T10:54:06.393Z,96853.48
2023-07-01T10:56:39.631Z,96851.58
2023-07-01T10:59:27.492Z,96851.77
2023-07-01T11:01:57.882Z,96849.88
2023-07-01T11:04:46.325Z,96856.95
2023-07-01T11:07:25.265Z,96856.20
2023-07-01T11:09:54.650Z,96855.33
2023-07-01T11:12:24.608Z,96851.98
2023-07-01T11:14:54.418Z,96855.30
2023-07-01T11:17:24.061Z,96850.75
2023-07-01T11:19:56.758Z,96847.20
2023-07-01T11:22:25.117Z,96844.90
2023-07-01T11:24:53.230Z,96842.45
2023-07-01T11:27:22.678Z,96838.98
2023-07-01T11:29:50.917Z,96839.58
2023-07-01T11:32:21.381Z,96837.03
2023-07-01T11:34:58.423Z,96833.14
2023-07-01T11:37:28.984Z,96832.13
2023-07-01T11:39:57.346Z,96834.00
2023-07-01T11:42:28.524Z,96832.42
2023-07-01T11:44:56.816Z,96831.77
2023-07-01T11:47:25.363Z,96826.44
2023-07-01T11:49:53.563Z,96827.48
2023-07-01T11:52:25.945Z,96829.57
2023-07-01T11:54:56.462Z,96825.58
2023-07-01T11:57:25.121Z,96824.22
2023-07-01T11:59:55.548Z,96822.42
2023-07-01T12:02:32.061Z,96817.19
2023-07-01T12:05:02.456Z,96817.83
2023-07-01T12:07:31.337Z,96819.65
2023-07-01T12:10:18.915Z,96818.00
2023-07-01T12:12:47.261Z,96814.77
2023-07-01T12:15:17.182Z,96813.55
2023-07-01T12:17:45.571Z,96814.02
2023-07-01T12:20:14.572Z,96813.38
2023-07-01T12:22:43.187Z,96810.38
2023-07-01T12:25:11.781Z,96806.67
2023-07-01T12:27:39.934Z,96800.66
2023-07-01T12:30:11.870Z,96797.39
2023-07-01T12:32:42.136Z,96795.39
2023-07-01T12:35:11.057Z,96793.44
2023-07-01T12:37:41.321Z,96795.36
2023-07-01T12:40:10.466Z,96791.83
2023-07-01T12:42:38.813Z,96789.27
2023-07-01T12:45:07.614Z,96792.02
2023-07-01T12:47:40.589Z,96793.42
2023-07-01T12:50:10.357Z,96790.31
2023-07-01T12:52:38.532Z,96788.85
2023-07-01T12:55:11.269Z,96786.77
2023-07-01T12:57:40.791Z,96784.23
2023-07-01T13:00:10.495Z,96784.32
2023-07-01T13:02:38.736Z,96784.63
2023-07-01T13:05:08.045Z,96780.56
2023-07-01T13:07:36.440Z,96774.35
2023-07-01T13:10:04.721Z,96772.20
2023-07-01T13:12:32.800Z,96773.91
2023-07-01T13:15:00.925Z,96773.63
2023-07-01T13:17:39.053Z,96772.30
2023-07-01T13:20:11.317Z,96770.28
2023-07-01T13:22:39.617Z,96767.91
2023-07-01T13:25:08.961Z,96768.29
2023-07-01T13:27:37.309Z,96763.41
2023-07-01T13:30:09.093Z,96760.30
2023-07-01T13:32:37.397Z,96759.11
2023-07-01T13:35:07.186Z,96755.01
2023-07-01T13:37:35.326Z,96749.62
2023-07-01T13:40:03.900Z,96753.23
2023-07-01T13:42:31.894Z,96755.63
2023-07-01T13:45:00.162Z,96749.65
2023-07-01T13:47:31.333Z,96748.47
2023-07-01T13:49:59.499Z,96741.41
2023-07-01T13:52:27.955Z,96738.66
2023-07-01T13:54:55.999Z,96738.06
2023-07-01T13:57:29.782Z,96732.56
2023-07-01T13:59:58.359Z,96732.77
2023-07-01T14:02:26.463Z,96727.95
2023-07-01T14:04:55.849Z,96727.66
2023-07-01T14:07:25.973Z,96724.99
2023-07-01T14:09:54.104Z,96721.05
2023-07-01T14:12:22.205Z,96721.27
2023-07-01T14:14:50.399Z,96721.34
2023-07-01T14:17:22.385Z,96718.79
2023-07-01T14:19:58.007Z,96713.71
2023-07-01T14:22:26.544Z,96710.42
2023-07-01T14:24:55.530Z,96706.77
2023-07-01T14:27:31.054Z,96707.97
2023-07-01T14:29:59.051Z,96703.19
2023-07-01T14:32:27.631Z,96701.56
2023-07-01T14:34:55.646Z,96703.34
2023-07-01T14:37:23.799Z,96702.79
2023-07-01T14:39:55.438Z,96699.64
2023-07-01T14:42:33.704Z,96697.57
2023-07-01T14:45:02.156Z,96695.17
2023-07-01T14:47:30.300Z,96695.77
2023-07-01T14:49:58.537Z,96695.30
2023-07-01T14:52:26.618Z,96690.52
2023-07-01T14:54:54.620Z,96689.52
2023-07-01T14:57:22.725Z,96685.30
2023-07-01T14:59:50.895Z,96683.46
2023-07-01T15:02:20.030Z,96676.79
2023-07-01T15:04:48.271Z,96676.70
2023-07-01T15:07:16.477Z,96677.02
2023-07-01T15:09:44.638Z,96675.25
2023-07-01T15:12:12.765Z,96669.55
2023-07-01T15:14:41.046Z,96668.25
2023-07-01T15:17:09.154Z,96668.25
2023-07-01T15:19:37.343Z,96668.43
2023-07-01T15:22:05.908Z,96667.54
2023-07-01T15:24:34.192Z,96667.36
2023-07-01T15:27:02.444Z,96665.13
2023-07-01T15:29:30.465Z,96664.77
2023-07-01T15:31:58.529Z,96663.64
2023-07-01T15:34:26.769Z,96662.98
2023-07-01T15:36:55.012Z,96662.22
2023-07-01T15:39:23.065Z,96664.48
2023-07-01T15:41:51.149Z,96669.50
2023-07-01T15:44:19.635Z,96671.05
2023-07-01T15:46:48.164Z,96666.72
2023-07-01T15:49:16.302Z,96668.92
2023-07-01T15:51:44.973Z,96670.55
2023-07-01T15:54:14.025Z,96668.69
2023-07-01T15:56:42.255Z,96666.89
2023-07-01T15:59:10.671Z,96662.45
2023-07-01T16:01:38.861Z,96658.66
2023-07-01T16:04:06.997Z,96653.40
2023-07-01T16:06:35.390Z,96652.93
2023-07-01T16:09:27.053Z,96648.95
2023-07-01T16:11:55.120Z,96645.83
2023-07-01T16:14:23.546Z,96647.99
2023-07-01T16:16:55.105Z,96651.18
2023-07-01T16:19:23.202Z,96653.30
2023-07-01T16:21:53.129Z,96657.18
2023-07-01T16:24:54.284Z,96652.27
2023-07-01T16:27:25.154Z,96651.92
2023-07-01T16:30:03.247Z,96650.52
2023-07-01T16:32:31.464Z,96656.61
2023-07-01T16:35:06.616Z,96657.59
2023-07-01T16:37:35.859Z,96659.02
2023-07-01T16:40:25.069Z,96655.58
2023-07-01T16:42:54.195Z,96653.90
2023-07-01T16:45:49.370Z,96648.37
2023-07-01T16:48:23.936Z,96645.79
2023-07-01T16:51:00.346Z,96642.30
2023-07-01T16:53:29.271Z,96642.05
2023-07-01T16:55:59.383Z,96641.95
2023-07-01T16:58:33.520Z,96642.25
2023-07-01T17:01:06.324Z,96646.17
2023-07-01T17:03:36.292Z,96648.69
2023-07-01T17:06:38.101Z,96649.27
2023-07-01T17:09:07.156Z,96651.38
2023-07-01T17:11:48.813Z,96656.23
2023-07-01T17:14:39.020Z,96654.09
2023-07-01T17:17:34.895Z,96655.96
2023-07-01T17:20:07.422Z,96657.19
2023-07-01T17:22:37.328Z,96652.17
2023-07-01T17:25:06.066Z,96648.16
2023-07-01T17:27:34.324Z,96644.50
2023-07-01T17:30:02.390Z,96644.33
2023-07-01T17:32:30.737Z,96641.40
2023-07-01T17:35:20.038Z,96643.67
2023-07-01T17:37:49.603Z,96642.31
2023-07-01T17:40:22.882Z,96643.04
2023-07-01T17:42:52.947Z,96649.79
2023-07-01T17:45:21.701Z,96653.08
2023-07-01T17:47:51.329Z,96649.40
2023-07-01T17:50:22.102Z,96647.64
2023-07-01T17:52:51.434Z,96643.83
2023-07-01T17:55:20.201Z,96644.63
2023-07-01T18:00:19.778Z,96647.79
2023-07-01T18:02:47.871Z,96653.42
2023-07-01T18:05:16.202Z,96651.98
2023-07-01T18:07:44.505Z,96653.08
2023-07-01T18:10:12.682Z,96652.57
2023-07-01T18:12:42.577Z,96651.32
2023-07-01T18:15:15.518Z,96648.98
2023-07-01T18:17:46.584Z,96650.45
2023-07-01T18:20:15.868Z,96653.94
2023-07-01T18:22:44.607Z,96656.11
2023-07-01T18:25:15.838Z,96659.48
2023-07-01T18:27:43.911Z,96662.63
2023-07-01T18:30:14.163Z,96666.62
2023-07-01T18:32:45.164Z,96667.09
2023-07-01T18:35:16.189Z,96666.21
2023-07-01T18:37:46.602Z,96668.66
2023-07-01T18:40:16.011Z,96672.74
2023-07-01T18:42:44.705Z,96676.64
2023-07-01T18:45:13.823Z,96677.24
2023-07-01T18:47:42.778Z,96677.02
2023-07-01T18:50:12.034Z,96676.37
2023-07-01T18:52:42.296Z,96679.66
2023-07-01T18:55:10.806Z,96680.23
2023-07-01T18:57:40.170Z,96683.95
2023-07-01T19:00:09.438Z,96686.13
2023-07-01T19:02:38.613Z,96686.64
2023-07-01T19:05:07.532Z,96689.62
2023-07-01T19:07:38.930Z,96691.90
2023-07-01T19:10:07.416Z,96692.86
2023-07-01T19:12:35.879Z,96694.69
2023-07-01T19:15:04.993Z,96690.08
2023-07-01T19:17:33.264Z,96693.80
2023-07-01T19:20:01.404Z,96697.34
2023-07-01T19:22:31.671Z,96693.28
2023-07-01T19:25:00.210Z,96693.30
2023-07-01T19:27:29.840Z,96697.71
2023-07-01T19:30:12.812Z,96702.23
2023-07-01T19:32:42.428Z,96704.47
2023-07-01T19:35:11.099Z,96704.68
2023-07-01T19:37:39.497Z,96708.64
2023-07-01T19:40:08.024Z,96706.40
2023-07-01T19:42:38.214Z,96700.88
2023-07-01T19:45:07.033Z,96703.70
2023-07-01T19:47:39.225Z,96700.86
2023-07-01T19:50:09.494Z,96700.17
2023-07-01T19:52:39.163Z,96698.73
2023-07-01T19:55:09.204Z,96704.25
2023-07-01T19:57:38.418Z,96703.58
2023-07-01T20:00:10.706Z,96707.77
2023-07-01T20:02:39.949Z,96712.10
2023-07-01T20:05:09.245Z,96712.25
2023-07-01T20:07:37.669Z,96708.26
2023-07-01T20:10:16.169Z,96711.48
2023-07-01T20:12:52.944Z,96713.87
2023-07-01T20:15:21.030Z,96714.41
2023-07-01T20:17:49.099Z,96716.60
2023-07-01T20:20:17.497Z,96720.86
2023-07-01T20:22:46.142Z,96720.91
2023-07-01T20:25:14.889Z,96722.84
2023-07-01T20:27:43.045Z,96725.55
2023-07-01T20:30:11.670Z,96724.54
2023-07-01T20:32:40.169Z,96723.39
2023-07-01T20:35:08.675Z,96723.58
2023-07-01T20:37:36.815Z,96725.80
2023-07-01T20:40:05.430Z,96725.11
2023-07-01T20:42:37.278Z,96723.16
2023-07-01T20:45:06.533Z,96724.92
2023-07-01T20:47:34.747Z,96727.61
2023-07-01T20:50:02.831Z,96728.21
2023-07-01T20:52:30.816Z,96731.17
2023-07-01T20:54:58.749Z,96726.66
2023-07-01T20:57:26.778Z,96729.55
2023-07-01T20:59:54.918Z,96727.23
2023-07-01T21:02:22.983Z,96727.44
2023-07-01T21:04:51.799Z,96726.88
2023-07-01T21:07:19.882Z,96723.02
2023-07-01T21:09:47.894Z,96722.25
2023-07-01T21:12:15.890Z,96718.60
2023-07-01T21:14:43.837Z,96713.84
2023-07-01T21:17:11.902Z,96710.45
2023-07-01T21:19:40.116Z,96709.34
2023-07-01T21:22:08.185Z,96710.79
2023-07-01T21:24:36.294Z,96709.81
2023-07-01T21:27:04.707Z,96713.98
2023-07-01T21:29:32.675Z,96715.59
2023-07-01T21:32:00.757Z,96713.47
2023-07-01T21:34:30.861Z,96714.27
2023-07-01T21:36:58.870Z,96711.91
2023-07-01T21:39:27.519Z,96711.23
2023-07-01T21:41:56.606Z,96710.59
2023-07-01T21:44:24.616Z,96707.94
2023-07-01T21:46:52.699Z,96709.98
2023-07-01T21:49:22.150Z,96709.17
2023-07-01T21:51:50.276Z,96710.22
2023-07-01T21:54:21.069Z,96710.50
2023-07-01T21:56:50.193Z,96708.34
2023-07-01T21:59:19.089Z,96712.21
2023-07-01T22:01:47.619Z,96711.88
2023-07-01T22:04:16.258Z,96716.00
2023-07-01T22:06:47.596Z,96715.48
2023-07-01T22:09:17.081Z,96714.83
2023-07-01T22:11:46.331Z,96710.91
2023-07-01T22:14:14.594Z,96711.34
2023-07-01T22:16:42.815Z,96708.09
2023-07-01T22:19:10.908Z,96709.08
2023-07-01T22:21:39.916Z,96707.59
2023-07-01T22:24:08.386Z,96705.90
2023-07-01T22:26:36.473Z,96707.40
2023-07-01T22:29:06.596Z,96709.62
2023-07-01T22:31:35.157Z,96707.46
2023-07-01T22:34:03.300Z,96708.71
2023-07-01T22:36:31.163Z,96707.52
2023-07-01T22:38:59.314Z,96705.64
2023-07-01T22:41:27.329Z,96706.61
2023-07-01T22:43:57.141Z,96707.16
2023-07-01T22:46:25.185Z,96702.91
2023-07-01T22:48:53.532Z,96702.90
2023-07-01T22:51:21.563Z,96697.45
2023-07-01T22:53:49.577Z,96692.14
2023-07-01T22:56:17.814Z,96690.77
2023-07-01T22:58:46.000Z,96691.48
2023-07-01T23:01:14.180Z,96694.05
2023-07-01T23:03:42.405Z,96695.20
2023-07-01T23:06:10.679Z,96695.61
2023-07-01T23:08:38.608Z,96692.45
2023-07-01T23:11:06.776Z,96690.83
2023-07-01T23:13:34.681Z,96691.70
2023-07-01T23:16:02.855Z,96693.96
2023-07-01T23:18:30.985Z,96691.65
2023-07-01T23:20:58.896Z,96689.10
2023-07-01T23:23:26.869Z,96689.19
2023-07-01T23:25:54.924Z,96689.31
2023-07-01T23:28:23.402Z,96688.86
2023-07-01T23:30:52.623Z,96689.09
2023-07-01T23:33:21.474Z,96692.84
2023-07-01T23:35:49.533Z,96693.95
2023-07-01T23:38:17.655Z,96694.21
2023-07-01T23:40:45.890Z,96697.30
2023-07-01T23:43:13.901Z,96701.14
2023-07-01T23:45:41.877Z,96700.60
2023-07-01T23:48:09.852Z,96704.73
2023-07-01T23:50:38.097Z,96701.84
2023-07-01T23:53:06.154Z,96698.06
2023-07-01T23:55:34.113Z,96697.90
2023-07-01T23:58:02.228Z,96692.19
